Auch, France

4:37 AM CET on October 26, 2014 (GMT +0100)
IMIDIPYR17 | Change Station
CLOSE
Current Station
Personal Weather Station
Location: Mirande, MIDI-PYReNeES
Elevation: 709 ft
Nearby Weather Stations

Elev 709 ft 43.52 °N, 0.39 °E | Updated 11 minutes ago

Clear
Clear
51.4 °F
Feels Like 51.4 °F
N
1.0
Wind Variable Wind from WNW
Gusts 2.0 mph

Today
High -- | Low -- °F
--% Chance of Precip.
Yesterday
High -- | Low -- °F
Precip. -- in
7:25 AM 5:57 PM
Waxing Crescent, 5% visible
Pressure 30.21 in
Visibility 6.2 miles
Clouds
Dew Point 49 °F
Humidity 93%
Rainfall 0.00 in
Snow Depth Not available.
UV 0.0 out of 12
Pollen Not available.
Air Quality Not available.
Flu Activity Not available.
METAR LFBA 260330Z AUTO 09002KT 9999 NSC 08/07 Q1023

More Conditions Fewer Conditions

Pressure 30.21 in
Visibility 6.2 miles
Clouds
Dew Point 49 °F
Humidity 93%
Rainfall 0.00 in
Snow Depth Not available.
UV 0.0 out of 12
Pollen Not available.
Air Quality Not available.
Flu Activity Not available.
METAR LFBA 260330Z AUTO 09002KT 9999 NSC 08/07 Q1023

More Conditions Fewer Conditions

10-Day Weather Forecast

Almanac

Astronomy

Oct. 26, 2014 Rise Set
Actual Time 7:25 AM CET 5:57 PM CET
Civil Twilight 6:55 AM CET 6:26 PM CET
Nautical Twilight 6:22 AM CET 7:00 PM CET
Astronomical Twilight 5:48 AM CET 7:33 PM CET
Moon 9:51 AM CET 7:52 PM CET
Length of Visible Light 11h 30m
Length of Day
10h 31m
Tomorrow will be 2m 45s shorter.
Waxing Crescent, 5% of the Moon is Illuminated
Oct 25
Waxing Crescent
Oct 30
First Quarter
Nov 6
Full
Nov 14
Last Quarter
Nov 22
New

Yesterday's Extremes

Country Highs Country Lows

Community

WunderPhotos

Upload Photos

1,765,095 photos uploaded!

Nearby

Snow Depth

Not available.

Earthquake Activity

City Distance Mag. Time & Date
No recent earthquake activity has been reported nearby.
Minimum magnitude displayed is 2.5.

Coastal Water Temperatures

Place Temperature
No Stations Reporting

Nearby Weather Stations